sensor_id;sensor_type;location;lat;lon;timestamp;temperature;humidity
10411;DHT22;5251;52.112;8.606;2022-12-16T00:01:20;-4.10;94.50
10411;DHT22;5251;52.112;8.606;2022-12-16T00:03:50;-4.10;94.50
10411;DHT22;5251;52.112;8.606;2022-12-16T00:06:16;-4.10;94.50
10411;DHT22;5251;52.112;8.606;2022-12-16T00:08:43;-4.10;94.50
10411;DHT22;5251;52.112;8.606;2022-12-16T00:11:09;-4.10;94.50
10411;DHT22;5251;52.112;8.606;2022-12-16T00:13:36;-4.20;94.50
10411;DHT22;5251;52.112;8.606;2022-12-16T00:16:07;-4.20;94.50
10411;DHT22;5251;52.112;8.606;2022-12-16T00:18:33;-4.20;94.50
10411;DHT22;5251;52.112;8.606;2022-12-16T00:20:59;-4.20;94.50
10411;DHT22;5251;52.112;8.606;2022-12-16T00:23:26;-4.20;94.50
10411;DHT22;5251;52.112;8.606;2022-12-16T00:25:52;-4.20;94.50
10411;DHT22;5251;52.112;8.606;2022-12-16T00:28:18;-4.20;94.50
10411;DHT22;5251;52.112;8.606;2022-12-16T00:30:48;-4.20;94.60
10411;DHT22;5251;52.112;8.606;2022-12-16T00:33:15;-4.20;94.60
10411;DHT22;5251;52.112;8.606;2022-12-16T00:35:40;-4.20;94.60
10411;DHT22;5251;52.112;8.606;2022-12-16T00:38:06;-4.20;94.70
10411;DHT22;5251;52.112;8.606;2022-12-16T00:40:31;-4.20;94.60
10411;DHT22;5251;52.112;8.606;2022-12-16T00:42:57;-4.30;94.60
10411;DHT22;5251;52.112;8.606;2022-12-16T00:45:22;-4.30;94.50
10411;DHT22;5251;52.112;8.606;2022-12-16T00:47:49;-4.30;94.50
10411;DHT22;5251;52.112;8.606;2022-12-16T00:50:15;-4.30;94.40
10411;DHT22;5251;52.112;8.606;2022-12-16T00:52:41;-4.30;94.40
10411;DHT22;5251;52.112;8.606;2022-12-16T00:55:07;-4.30;94.40
10411;DHT22;5251;52.112;8.606;2022-12-16T00:57:33;-4.30;94.40
10411;DHT22;5251;52.112;8.606;2022-12-16T00:59:58;-4.30;94.40
10411;DHT22;5251;52.112;8.606;2022-12-16T01:02:24;-4.40;94.40
10411;DHT22;5251;52.112;8.606;2022-12-16T01:04:49;-4.40;94.40
10411;DHT22;5251;52.112;8.606;2022-12-16T01:07:15;-4.40;94.40
10411;DHT22;5251;52.112;8.606;2022-12-16T01:09:41;-4.40;94.40
10411;DHT22;5251;52.112;8.606;2022-12-16T01:12:06;-4.40;94.30
10411;DHT22;5251;52.112;8.606;2022-12-16T01:14:32;-4.40;94.30
10411;DHT22;5251;52.112;8.606;2022-12-16T01:16:58;-4.50;94.20
10411;DHT22;5251;52.112;8.606;2022-12-16T01:19:23;-4.50;94.20
10411;DHT22;5251;52.112;8.606;2022-12-16T01:21:49;-4.50;94.20
10411;DHT22;5251;52.112;8.606;2022-12-16T01:24:14;-4.50;94.10
10411;DHT22;5251;52.112;8.606;2022-12-16T01:26:40;-4.50;94.10
10411;DHT22;5251;52.112;8.606;2022-12-16T01:29:06;-4.50;94.00
10411;DHT22;5251;52.112;8.606;2022-12-16T01:31:31;-4.60;94.00
10411;DHT22;5251;52.112;8.606;2022-12-16T01:33:57;-4.60;93.90
10411;DHT22;5251;52.112;8.606;2022-12-16T01:36:23;-4.60;93.90
10411;DHT22;5251;52.112;8.606;2022-12-16T01:38:48;-4.60;93.90
10411;DHT22;5251;52.112;8.606;2022-12-16T01:41:15;-4.60;93.90
10411;DHT22;5251;52.112;8.606;2022-12-16T01:43:42;-4.70;93.90
10411;DHT22;5251;52.112;8.606;2022-12-16T01:48:47;-4.70;93.90
10411;DHT22;5251;52.112;8.606;2022-12-16T01:51:30;-4.70;93.90
10411;DHT22;5251;52.112;8.606;2022-12-16T01:54:07;-4.70;93.90
10411;DHT22;5251;52.112;8.606;2022-12-16T01:56:36;-4.70;93.90
10411;DHT22;5251;52.112;8.606;2022-12-16T01:59:04;-4.70;93.90
10411;DHT22;5251;52.112;8.606;2022-12-16T02:01:30;-4.80;93.90
10411;DHT22;5251;52.112;8.606;2022-12-16T02:03:57;-4.80;93.90
10411;DHT22;5251;52.112;8.606;2022-12-16T02:06:26;-4.80;93.80
10411;DHT22;5251;52.112;8.606;2022-12-16T02:08:55;-4.80;93.80
10411;DHT22;5251;52.112;8.606;2022-12-16T02:14:10;-4.80;93.70
10411;DHT22;5251;52.112;8.606;2022-12-16T02:16:54;-4.90;93.60
10411;DHT22;5251;52.112;8.606;2022-12-16T02:36:10;-5.00;93.50
10411;DHT22;5251;52.112;8.606;2022-12-16T02:41:24;-5.00;93.60
10411;DHT22;5251;52.112;8.606;2022-12-16T02:44:05;-5.00;93.70
10411;DHT22;5251;52.112;8.606;2022-12-16T02:46:32;-5.00;93.70
10411;DHT22;5251;52.112;8.606;2022-12-16T02:49:07;-5.00;93.70
10411;DHT22;5251;52.112;8.606;2022-12-16T02:51:34;-5.00;93.70
10411;DHT22;5251;52.112;8.606;2022-12-16T02:54:02;-5.00;93.70
10411;DHT22;5251;52.112;8.606;2022-12-16T03:04:46;-5.10;93.50
10411;DHT22;5251;52.112;8.606;2022-12-16T03:07:16;-5.10;93.50
10411;DHT22;5251;52.112;8.606;2022-12-16T03:09:44;-5.10;93.50
10411;DHT22;5251;52.112;8.606;2022-12-16T03:12:13;-5.10;93.50
10411;DHT22;5251;52.112;8.606;2022-12-16T03:14:42;-5.10;93.50
10411;DHT22;5251;52.112;8.606;2022-12-16T03:17:09;-5.10;93.50
10411;DHT22;5251;52.112;8.606;2022-12-16T03:19:36;-5.10;93.50
10411;DHT22;5251;52.112;8.606;2022-12-16T03:22:05;-5.10;93.40
10411;DHT22;5251;52.112;8.606;2022-12-16T03:24:32;-5.10;93.40
10411;DHT22;5251;52.112;8.606;2022-12-16T03:27:18;-5.20;93.30
10411;DHT22;5251;52.112;8.606;2022-12-16T03:29:55;-5.20;93.30
10411;DHT22;5251;52.112;8.606;2022-12-16T03:34:58;-5.20;93.30
10411;DHT22;5251;52.112;8.606;2022-12-16T03:37:28;-5.20;93.20
10411;DHT22;5251;52.112;8.606;2022-12-16T03:39:59;-5.20;93.30
10411;DHT22;5251;52.112;8.606;2022-12-16T03:42:26;-5.20;93.30
10411;DHT22;5251;52.112;8.606;2022-12-16T03:44:52;-5.30;93.20
10411;DHT22;5251;52.112;8.606;2022-12-16T03:47:18;-5.30;93.20
10411;DHT22;5251;52.112;8.606;2022-12-16T03:49:43;-5.20;93.30
10411;DHT22;5251;52.112;8.606;2022-12-16T03:52:10;-5.30;93.20
10411;DHT22;5251;52.112;8.606;2022-12-16T03:54:36;-5.30;93.20
10411;DHT22;5251;52.112;8.606;2022-12-16T03:57:02;-5.30;93.20
10411;DHT22;5251;52.112;8.606;2022-12-16T03:59:27;-5.30;93.20
10411;DHT22;5251;52.112;8.606;2022-12-16T04:01:53;-5.30;93.10
10411;DHT22;5251;52.112;8.606;2022-12-16T04:04:19;-5.30;93.10
10411;DHT22;5251;52.112;8.606;2022-12-16T04:06:44;-5.30;93.10
10411;DHT22;5251;52.112;8.606;2022-12-16T04:09:10;-5.30;93.10
10411;DHT22;5251;52.112;8.606;2022-12-16T04:11:36;-5.30;93.20
10411;DHT22;5251;52.112;8.606;2022-12-16T04:14:20;-5.30;93.10
10411;DHT22;5251;52.112;8.606;2022-12-16T04:17:04;-5.30;93.20
10411;DHT22;5251;52.112;8.606;2022-12-16T04:19:49;-5.40;93.10
10411;DHT22;5251;52.112;8.606;2022-12-16T04:22:41;-5.40;93.10
10411;DHT22;5251;52.112;8.606;2022-12-16T04:25:34;-5.40;93.10
10411;DHT22;5251;52.112;8.606;2022-12-16T04:28:00;-5.40;93.10
10411;DHT22;5251;52.112;8.606;2022-12-16T04:30:27;-5.40;93.10
10411;DHT22;5251;52.112;8.606;2022-12-16T04:32:58;-5.40;93.10
10411;DHT22;5251;52.112;8.606;2022-12-16T04:35:44;-5.40;93.10
10411;DHT22;5251;52.112;8.606;2022-12-16T04:38:28;-5.50;93.00
10411;DHT22;5251;52.112;8.606;2022-12-16T04:41:13;-5.40;93.10
10411;DHT22;5251;52.112;8.606;2022-12-16T04:43:57;-5.40;93.10
10411;DHT22;5251;52.112;8.606;2022-12-16T04:46:41;-5.40;93.10
10411;DHT22;5251;52.112;8.606;2022-12-16T04:49:25;-5.40;93.10
10411;DHT22;5251;52.112;8.606;2022-12-16T04:52:10;-5.40;93.10
10411;DHT22;5251;52.112;8.606;2022-12-16T04:54:54;-5.40;93.10
10411;DHT22;5251;52.112;8.606;2022-12-16T04:57:37;-5.50;93.00
10411;DHT22;5251;52.112;8.606;2022-12-16T05:00:22;-5.50;93.10
10411;DHT22;5251;52.112;8.606;2022-12-16T05:03:06;-5.50;93.00
10411;DHT22;5251;52.112;8.606;2022-12-16T05:05:51;-5.50;93.00
10411;DHT22;5251;52.112;8.606;2022-12-16T05:08:35;-5.50;93.00
10411;DHT22;5251;52.112;8.606;2022-12-16T05:11:19;-5.50;93.00
10411;DHT22;5251;52.112;8.606;2022-12-16T05:14:04;-5.50;93.10
10411;DHT22;5251;52.112;8.606;2022-12-16T05:16:47;-5.50;93.10
10411;DHT22;5251;52.112;8.606;2022-12-16T05:19:31;-5.50;93.10
10411;DHT22;5251;52.112;8.606;2022-12-16T05:22:15;-5.60;93.00
10411;DHT22;5251;52.112;8.606;2022-12-16T05:24:59;-5.60;93.00
10411;DHT22;5251;52.112;8.606;2022-12-16T05:27:43;-5.60;93.00
10411;DHT22;5251;52.112;8.606;2022-12-16T05:30:27;-5.60;93.00
10411;DHT22;5251;52.112;8.606;2022-12-16T05:33:11;-5.60;93.00
10411;DHT22;5251;52.112;8.606;2022-12-16T05:35:55;-5.60;93.00
10411;DHT22;5251;52.112;8.606;2022-12-16T05:38:39;-5.60;92.90
10411;DHT22;5251;52.112;8.606;2022-12-16T05:41:23;-5.60;92.90
10411;DHT22;5251;52.112;8.606;2022-12-16T05:44:07;-5.60;92.80
10411;DHT22;5251;52.112;8.606;2022-12-16T05:46:51;-5.60;92.80
10411;DHT22;5251;52.112;8.606;2022-12-16T05:49:36;-4.90;93.10
10411;DHT22;5251;52.112;8.606;2022-12-16T05:52:20;-5.70;92.70
10411;DHT22;5251;52.112;8.606;2022-12-16T05:55:04;-5.70;92.60
10411;DHT22;5251;52.112;8.606;2022-12-16T05:57:52;-5.70;92.60
10411;DHT22;5251;52.112;8.606;2022-12-16T06:00:36;-5.70;92.60
10411;DHT22;5251;52.112;8.606;2022-12-16T06:03:21;-5.70;92.60
10411;DHT22;5251;52.112;8.606;2022-12-16T06:06:06;-5.80;92.60
10411;DHT22;5251;52.112;8.606;2022-12-16T06:08:50;-5.80;92.60
10411;DHT22;5251;52.112;8.606;2022-12-16T06:11:34;-5.80;92.60
10411;DHT22;5251;52.112;8.606;2022-12-16T06:14:19;-5.80;92.60
10411;DHT22;5251;52.112;8.606;2022-12-16T06:17:03;-5.80;92.60
10411;DHT22;5251;52.112;8.606;2022-12-16T06:19:47;-5.80;92.60
10411;DHT22;5251;52.112;8.606;2022-12-16T06:22:30;-5.80;92.60
10411;DHT22;5251;52.112;8.606;2022-12-16T06:25:15;-5.80;92.60
10411;DHT22;5251;52.112;8.606;2022-12-16T06:27:59;-5.80;92.50
10411;DHT22;5251;52.112;8.606;2022-12-16T06:30:43;-5.90;92.50
10411;DHT22;5251;52.112;8.606;2022-12-16T06:33:27;-5.90;92.50
10411;DHT22;5251;52.112;8.606;2022-12-16T06:36:11;-5.90;92.50
10411;DHT22;5251;52.112;8.606;2022-12-16T06:38:55;-5.90;92.50
10411;DHT22;5251;52.112;8.606;2022-12-16T06:41:39;-5.90;92.50
10411;DHT22;5251;52.112;8.606;2022-12-16T06:44:23;-5.90;92.50
10411;DHT22;5251;52.112;8.606;2022-12-16T06:47:07;-5.90;92.50
10411;DHT22;5251;52.112;8.606;2022-12-16T06:49:51;-5.90;92.50
10411;DHT22;5251;52.112;8.606;2022-12-16T06:52:35;-5.90;92.50
10411;DHT22;5251;52.112;8.606;2022-12-16T06:55:20;-5.90;92.50
10411;DHT22;5251;52.112;8.606;2022-12-16T06:58:04;-5.90;92.50
10411;DHT22;5251;52.112;8.606;2022-12-16T07:00:48;-5.90;92.50
10411;DHT22;5251;52.112;8.606;2022-12-16T07:03:32;-5.90;92.50
10411;DHT22;5251;52.112;8.606;2022-12-16T07:06:17;-5.90;92.50
10411;DHT22;5251;52.112;8.606;2022-12-16T07:09:01;-5.90;92.50
10411;DHT22;5251;52.112;8.606;2022-12-16T07:11:45;-5.90;92.50
10411;DHT22;5251;52.112;8.606;2022-12-16T07:14:29;-6.00;92.50
10411;DHT22;5251;52.112;8.606;2022-12-16T07:17:13;-6.00;92.50
10411;DHT22;5251;52.112;8.606;2022-12-16T07:19:57;-6.00;92.50
10411;DHT22;5251;52.112;8.606;2022-12-16T07:22:42;-6.00;92.50
10411;DHT22;5251;52.112;8.606;2022-12-16T07:25:26;-5.90;92.50
10411;DHT22;5251;52.112;8.606;2022-12-16T07:28:10;-6.00;92.50
10411;DHT22;5251;52.112;8.606;2022-12-16T07:30:54;-6.00;92.40
10411;DHT22;5251;52.112;8.606;2022-12-16T07:33:38;-6.00;92.40
10411;DHT22;5251;52.112;8.606;2022-12-16T07:36:22;-6.00;92.40
10411;DHT22;5251;52.112;8.606;2022-12-16T07:39:06;-6.00;92.40
10411;DHT22;5251;52.112;8.606;2022-12-16T07:41:50;-6.00;92.50
10411;DHT22;5251;52.112;8.606;2022-12-16T07:44:34;-6.00;92.50
10411;DHT22;5251;52.112;8.606;2022-12-16T07:47:18;-6.00;92.50
10411;DHT22;5251;52.112;8.606;2022-12-16T07:50:03;-6.00;92.50
10411;DHT22;5251;52.112;8.606;2022-12-16T07:52:56;-6.00;92.50
10411;DHT22;5251;52.112;8.606;2022-12-16T07:55:40;-6.00;92.50
10411;DHT22;5251;52.112;8.606;2022-12-16T07:58:24;-6.00;92.60
10411;DHT22;5251;52.112;8.606;2022-12-16T08:01:08;-6.00;92.60
10411;DHT22;5251;52.112;8.606;2022-12-16T08:03:52;-5.90;92.60
10411;DHT22;5251;52.112;8.606;2022-12-16T08:06:36;-5.90;92.60
10411;DHT22;5251;52.112;8.606;2022-12-16T08:09:20;-5.90;92.70
10411;DHT22;5251;52.112;8.606;2022-12-16T08:12:05;-5.90;92.80
10411;DHT22;5251;52.112;8.606;2022-12-16T08:14:49;-5.80;92.80
10411;DHT22;5251;52.112;8.606;2022-12-16T08:17:33;-5.80;92.80
10411;DHT22;5251;52.112;8.606;2022-12-16T08:20:17;-5.80;92.80
10411;DHT22;5251;52.112;8.606;2022-12-16T08:23:01;-5.80;92.90
10411;DHT22;5251;52.112;8.606;2022-12-16T08:25:45;-5.70;93.00
10411;DHT22;5251;52.112;8.606;2022-12-16T08:28:29;-5.70;93.00
10411;DHT22;5251;52.112;8.606;2022-12-16T08:31:13;-5.70;93.00
10411;DHT22;5251;52.112;8.606;2022-12-16T08:33:57;-5.60;93.00
10411;DHT22;5251;52.112;8.606;2022-12-16T08:36:41;-5.70;93.00
10411;DHT22;5251;52.112;8.606;2022-12-16T08:39:25;-5.60;93.10
10411;DHT22;5251;52.112;8.606;2022-12-16T08:42:09;-5.60;93.10
10411;DHT22;5251;52.112;8.606;2022-12-16T08:44:53;-5.50;93.20
10411;DHT22;5251;52.112;8.606;2022-12-16T08:47:37;-5.50;93.20
10411;DHT22;5251;52.112;8.606;2022-12-16T08:50:21;-5.40;93.30
10411;DHT22;5251;52.112;8.606;2022-12-16T08:53:05;-5.40;93.40
10411;DHT22;5251;52.112;8.606;2022-12-16T08:55:49;-5.40;93.50
10411;DHT22;5251;52.112;8.606;2022-12-16T08:58:33;-5.30;93.60
10411;DHT22;5251;52.112;8.606;2022-12-16T09:01:17;-5.20;93.80
10411;DHT22;5251;52.112;8.606;2022-12-16T09:04:01;-5.20;94.00
10411;DHT22;5251;52.112;8.606;2022-12-16T09:06:45;-5.10;94.10
10411;DHT22;5251;52.112;8.606;2022-12-16T09:09:30;-5.00;94.40
10411;DHT22;5251;52.112;8.606;2022-12-16T09:12:14;-4.90;94.60
10411;DHT22;5251;52.112;8.606;2022-12-16T09:14:58;-4.80;94.80
10411;DHT22;5251;52.112;8.606;2022-12-16T09:17:42;-4.70;94.90
10411;DHT22;5251;52.112;8.606;2022-12-16T09:20:26;-4.50;95.10
10411;DHT22;5251;52.112;8.606;2022-12-16T09:23:10;-4.40;95.20
10411;DHT22;5251;52.112;8.606;2022-12-16T09:25:57;-4.30;95.20
10411;DHT22;5251;52.112;8.606;2022-12-16T09:28:41;-4.30;95.30
10411;DHT22;5251;52.112;8.606;2022-12-16T09:31:25;-4.20;95.40
10411;DHT22;5251;52.112;8.606;2022-12-16T09:34:09;-4.10;95.50
10411;DHT22;5251;52.112;8.606;2022-12-16T09:37:04;-4.00;95.60
10411;DHT22;5251;52.112;8.606;2022-12-16T09:39:48;-4.00;95.60
10411;DHT22;5251;52.112;8.606;2022-12-16T09:42:45;-3.90;95.60
10411;DHT22;5251;52.112;8.606;2022-12-16T09:51:33;-3.70;95.90
10411;DHT22;5251;52.112;8.606;2022-12-16T09:54:22;-3.70;95.90
10411;DHT22;5251;52.112;8.606;2022-12-16T09:57:08;-3.60;95.90
10411;DHT22;5251;52.112;8.606;2022-12-16T10:00:06;-3.50;96.00
10411;DHT22;5251;52.112;8.606;2022-12-16T10:02:50;-3.50;96.10
10411;DHT22;5251;52.112;8.606;2022-12-16T10:05:53;-3.40;96.20
10411;DHT22;5251;52.112;8.606;2022-12-16T10:08:48;-3.30;96.30
10411;DHT22;5251;52.112;8.606;2022-12-16T10:12:07;-3.30;96.30
10411;DHT22;5251;52.112;8.606;2022-12-16T10:15:11;-3.20;96.40
10411;DHT22;5251;52.112;8.606;2022-12-16T10:17:59;-3.10;96.50
10411;DHT22;5251;52.112;8.606;2022-12-16T10:20:54;-3.00;96.70
10411;DHT22;5251;52.112;8.606;2022-12-16T10:29:31;-2.80;97.00
10411;DHT22;5251;52.112;8.606;2022-12-16T10:35:43;-2.60;97.30
10411;DHT22;5251;52.112;8.606;2022-12-16T10:38:31;-2.50;97.50
10411;DHT22;5251;52.112;8.606;2022-12-16T10:41:18;-2.30;97.60
10411;DHT22;5251;52.112;8.606;2022-12-16T10:44:11;-2.30;97.60
10411;DHT22;5251;52.112;8.606;2022-12-16T10:46:58;-2.10;97.80
10411;DHT22;5251;52.112;8.606;2022-12-16T10:49:42;-2.00;97.90
10411;DHT22;5251;52.112;8.606;2022-12-16T10:52:26;-1.90;97.90
10411;DHT22;5251;52.112;8.606;2022-12-16T10:55:30;-1.80;97.90
10411;DHT22;5251;52.112;8.606;2022-12-16T10:58:28;-1.70;97.80
10411;DHT22;5251;52.112;8.606;2022-12-16T11:01:26;-1.60;97.80
10411;DHT22;5251;52.112;8.606;2022-12-16T11:04:33;-1.60;97.80
10411;DHT22;5251;52.112;8.606;2022-12-16T11:10:42;-1.40;97.90
10411;DHT22;5251;52.112;8.606;2022-12-16T11:13:34;-1.30;98.00
10411;DHT22;5251;52.112;8.606;2022-12-16T11:16:27;-1.30;98.20
10411;DHT22;5251;52.112;8.606;2022-12-16T11:19:19;-1.20;98.60
10411;DHT22;5251;52.112;8.606;2022-12-16T11:22:17;-1.10;98.30
10411;DHT22;5251;52.112;8.606;2022-12-16T11:25:19;-1.00;98.30
10411;DHT22;5251;52.112;8.606;2022-12-16T11:28:04;-0.90;98.40
10411;DHT22;5251;52.112;8.606;2022-12-16T11:30:53;-0.80;98.40
10411;DHT22;5251;52.112;8.606;2022-12-16T11:33:41;-0.80;98.40
10411;DHT22;5251;52.112;8.606;2022-12-16T11:36:26;-0.70;98.50
10411;DHT22;5251;52.112;8.606;2022-12-16T11:39:15;-0.60;98.50
10411;DHT22;5251;52.112;8.606;2022-12-16T11:42:01;-0.60;98.50
10411;DHT22;5251;52.112;8.606;2022-12-16T11:44:57;-0.50;98.60
10411;DHT22;5251;52.112;8.606;2022-12-16T11:50:32;-0.30;98.90
10411;DHT22;5251;52.112;8.606;2022-12-16T11:53:33;-0.20;98.90
10411;DHT22;5251;52.112;8.606;2022-12-16T11:56:25;-0.10;99.00
10411;DHT22;5251;52.112;8.606;2022-12-16T11:59:51;0.00;99.00
10411;DHT22;5251;52.112;8.606;2022-12-16T12:06:02;0.10;99.10
10411;DHT22;5251;52.112;8.606;2022-12-16T12:09:03;0.20;99.10
10411;DHT22;5251;52.112;8.606;2022-12-16T12:12:11;0.30;99.10
10411;DHT22;5251;52.112;8.606;2022-12-16T12:21:24;0.40;99.00
10411;DHT22;5251;52.112;8.606;2022-12-16T12:27:29;0.60;99.10
10411;DHT22;5251;52.112;8.606;2022-12-16T12:30:17;0.60;99.10
10411;DHT22;5251;52.112;8.606;2022-12-16T12:36:11;0.70;99.10
10411;DHT22;5251;52.112;8.606;2022-12-16T12:39:23;0.80;99.20
10411;DHT22;5251;52.112;8.606;2022-12-16T12:42:15;0.80;99.10
10411;DHT22;5251;52.112;8.606;2022-12-16T12:48:33;0.90;99.20
10411;DHT22;5251;52.112;8.606;2022-12-16T12:54:42;1.00;99.20
10411;DHT22;5251;52.112;8.606;2022-12-16T12:57:28;1.00;99.20
10411;DHT22;5251;52.112;8.606;2022-12-16T13:00:19;1.10;99.20
10411;DHT22;5251;52.112;8.606;2022-12-16T13:05:54;1.10;99.10
10411;DHT22;5251;52.112;8.606;2022-12-16T13:11:35;1.20;99.00
10411;DHT22;5251;52.112;8.606;2022-12-16T13:20:56;1.20;98.80
10411;DHT22;5251;52.112;8.606;2022-12-16T13:23:44;1.30;98.80
10411;DHT22;5251;52.112;8.606;2022-12-16T13:26:31;1.30;98.70
10411;DHT22;5251;52.112;8.606;2022-12-16T13:29:31;1.20;98.60
10411;DHT22;5251;52.112;8.606;2022-12-16T13:32:23;1.20;98.60
10411;DHT22;5251;52.112;8.606;2022-12-16T13:38:03;1.20;98.50
10411;DHT22;5251;52.112;8.606;2022-12-16T13:41:03;1.20;98.50
10411;DHT22;5251;52.112;8.606;2022-12-16T13:43:49;1.20;98.50
10411;DHT22;5251;52.112;8.606;2022-12-16T13:55:38;1.10;98.50
10411;DHT22;5251;52.112;8.606;2022-12-16T13:58:38;1.10;98.50
10411;DHT22;5251;52.112;8.606;2022-12-16T14:04:26;1.10;98.60
10411;DHT22;5251;52.112;8.606;2022-12-16T14:07:13;1.10;98.70
10411;DHT22;5251;52.112;8.606;2022-12-16T14:10:00;1.10;98.80
10411;DHT22;5251;52.112;8.606;2022-12-16T14:12:55;1.10;99.00
10411;DHT22;5251;52.112;8.606;2022-12-16T14:25:13;1.10;99.10
10411;DHT22;5251;52.112;8.606;2022-12-16T14:27:59;1.20;99.20
10411;DHT22;5251;52.112;8.606;2022-12-16T14:30:43;1.20;99.10
10411;DHT22;5251;52.112;8.606;2022-12-16T14:33:28;1.20;99.00
10411;DHT22;5251;52.112;8.606;2022-12-16T14:36:28;1.20;98.90
10411;DHT22;5251;52.112;8.606;2022-12-16T14:39:20;1.10;98.80
10411;DHT22;5251;52.112;8.606;2022-12-16T14:42:18;1.10;98.80
10411;DHT22;5251;52.112;8.606;2022-12-16T14:45:16;1.10;98.80
10411;DHT22;5251;52.112;8.606;2022-12-16T14:48:01;1.10;98.70
10411;DHT22;5251;52.112;8.606;2022-12-16T14:50:45;1.10;98.60
10411;DHT22;5251;52.112;8.606;2022-12-16T14:53:30;1.10;98.50
10411;DHT22;5251;52.112;8.606;2022-12-16T14:56:22;1.00;98.30
10411;DHT22;5251;52.112;8.606;2022-12-16T14:59:14;1.00;98.30
10411;DHT22;5251;52.112;8.606;2022-12-16T15:02:13;0.90;98.10
10411;DHT22;5251;52.112;8.606;2022-12-16T15:05:00;0.90;98.00
10411;DHT22;5251;52.112;8.606;2022-12-16T15:07:45;0.80;97.90
10411;DHT22;5251;52.112;8.606;2022-12-16T15:10:29;0.80;97.90
10411;DHT22;5251;52.112;8.606;2022-12-16T15:13:17;0.60;97.80
10411;DHT22;5251;52.112;8.606;2022-12-16T15:16:02;0.60;97.80
10411;DHT22;5251;52.112;8.606;2022-12-16T15:18:53;0.60;97.70
10411;DHT22;5251;52.112;8.606;2022-12-16T15:21:40;0.50;97.60
10411;DHT22;5251;52.112;8.606;2022-12-16T15:24:25;0.40;97.60
10411;DHT22;5251;52.112;8.606;2022-12-16T15:27:34;0.40;97.50
10411;DHT22;5251;52.112;8.606;2022-12-16T15:30:40;0.30;97.60
10411;DHT22;5251;52.112;8.606;2022-12-16T15:33:27;0.20;97.50
10411;DHT22;5251;52.112;8.606;2022-12-16T15:39:55;0.00;97.40
10411;DHT22;5251;52.112;8.606;2022-12-16T15:42:24;0.00;97.50
10411;DHT22;5251;52.112;8.606;2022-12-16T15:45:30;0.00;97.50
10411;DHT22;5251;52.112;8.606;2022-12-16T15:51:42;-0.20;97.50
10411;DHT22;5251;52.112;8.606;2022-12-16T15:54:27;-0.20;97.50
10411;DHT22;5251;52.112;8.606;2022-12-16T15:57:33;-0.30;97.40
10411;DHT22;5251;52.112;8.606;2022-12-16T16:06:02;-0.40;97.60
10411;DHT22;5251;52.112;8.606;2022-12-16T16:08:50;-0.50;97.60
10411;DHT22;5251;52.112;8.606;2022-12-16T16:11:34;-0.50;97.70
10411;DHT22;5251;52.112;8.606;2022-12-16T16:14:18;-0.60;97.60
10411;DHT22;5251;52.112;8.606;2022-12-16T16:17:20;-0.60;97.60
10411;DHT22;5251;52.112;8.606;2022-12-16T16:20:05;-0.60;97.60
10411;DHT22;5251;52.112;8.606;2022-12-16T16:22:49;-0.60;97.60
10411;DHT22;5251;52.112;8.606;2022-12-16T16:25:33;-0.70;97.50
10411;DHT22;5251;52.112;8.606;2022-12-16T16:28:25;-0.70;97.50
10411;DHT22;5251;52.112;8.606;2022-12-16T16:31:09;-0.80;97.40
10411;DHT22;5251;52.112;8.606;2022-12-16T16:33:53;-0.80;97.40
10411;DHT22;5251;52.112;8.606;2022-12-16T16:36:37;-0.80;97.40
10411;DHT22;5251;52.112;8.606;2022-12-16T16:39:21;-0.90;97.40
10411;DHT22;5251;52.112;8.606;2022-12-16T16:42:06;-0.90;97.40
10411;DHT22;5251;52.112;8.606;2022-12-16T16:44:50;-1.00;97.40
10411;DHT22;5251;52.112;8.606;2022-12-16T16:47:35;-1.00;97.40
10411;DHT22;5251;52.112;8.606;2022-12-16T16:50:19;-1.00;97.50
10411;DHT22;5251;52.112;8.606;2022-12-16T16:53:03;-1.10;97.40
10411;DHT22;5251;52.112;8.606;2022-12-16T16:55:52;-1.10;97.40
10411;DHT22;5251;52.112;8.606;2022-12-16T16:58:36;-1.20;97.30
10411;DHT22;5251;52.112;8.606;2022-12-16T17:01:21;-1.20;97.40
10411;DHT22;5251;52.112;8.606;2022-12-16T17:04:05;-1.20;97.40
10411;DHT22;5251;52.112;8.606;2022-12-16T17:06:49;-1.20;97.30
10411;DHT22;5251;52.112;8.606;2022-12-16T17:09:33;-1.30;97.20
10411;DHT22;5251;52.112;8.606;2022-12-16T17:12:26;-1.30;97.10
10411;DHT22;5251;52.112;8.606;2022-12-16T17:15:23;-1.40;97.00
10411;DHT22;5251;52.112;8.606;2022-12-16T17:18:07;-1.40;96.90
10411;DHT22;5251;52.112;8.606;2022-12-16T17:20:52;-1.40;96.90
10411;DHT22;5251;52.112;8.606;2022-12-16T17:23:37;-1.50;96.90
10411;DHT22;5251;52.112;8.606;2022-12-16T17:26:22;-1.50;96.90
10411;DHT22;5251;52.112;8.606;2022-12-16T17:29:17;-1.60;96.90
10411;DHT22;5251;52.112;8.606;2022-12-16T17:32:01;-1.60;96.80
10411;DHT22;5251;52.112;8.606;2022-12-16T17:34:45;-1.60;96.80
10411;DHT22;5251;52.112;8.606;2022-12-16T17:37:29;-1.70;96.80
10411;DHT22;5251;52.112;8.606;2022-12-16T17:40:13;-1.70;96.80
10411;DHT22;5251;52.112;8.606;2022-12-16T17:42:57;-1.80;96.80
10411;DHT22;5251;52.112;8.606;2022-12-16T17:45:41;-1.80;96.80
10411;DHT22;5251;52.112;8.606;2022-12-16T17:48:25;-1.80;96.80
10411;DHT22;5251;52.112;8.606;2022-12-16T17:51:09;-1.90;96.70
10411;DHT22;5251;52.112;8.606;2022-12-16T17:53:53;-1.90;96.70
10411;DHT22;5251;52.112;8.606;2022-12-16T17:56:37;-1.90;96.70
10411;DHT22;5251;52.112;8.606;2022-12-16T17:59:22;-2.00;96.70
10411;DHT22;5251;52.112;8.606;2022-12-16T18:02:07;-2.00;96.70
10411;DHT22;5251;52.112;8.606;2022-12-16T18:04:55;-2.00;96.70
10411;DHT22;5251;52.112;8.606;2022-12-16T18:07:39;-2.00;96.70
10411;DHT22;5251;52.112;8.606;2022-12-16T18:10:23;-2.00;96.70
10411;DHT22;5251;52.112;8.606;2022-12-16T18:13:07;-2.10;96.60
10411;DHT22;5251;52.112;8.606;2022-12-16T18:15:52;-2.10;96.60
10411;DHT22;5251;52.112;8.606;2022-12-16T18:18:49;-2.10;96.60
10411;DHT22;5251;52.112;8.606;2022-12-16T18:21:34;-2.20;96.60
10411;DHT22;5251;52.112;8.606;2022-12-16T18:24:18;-2.20;96.50
10411;DHT22;5251;52.112;8.606;2022-12-16T18:27:02;-2.20;96.40
10411;DHT22;5251;52.112;8.606;2022-12-16T18:29:46;-2.20;96.40
10411;DHT22;5251;52.112;8.606;2022-12-16T18:32:30;-2.30;96.30
10411;DHT22;5251;52.112;8.606;2022-12-16T18:35:14;-2.30;96.30
10411;DHT22;5251;52.112;8.606;2022-12-16T18:37:58;-2.40;96.20
10411;DHT22;5251;52.112;8.606;2022-12-16T18:40:42;-2.40;96.20
10411;DHT22;5251;52.112;8.606;2022-12-16T18:43:27;-2.40;96.10
10411;DHT22;5251;52.112;8.606;2022-12-16T18:46:11;-2.50;96.10
10411;DHT22;5251;52.112;8.606;2022-12-16T18:48:55;-2.50;96.00
10411;DHT22;5251;52.112;8.606;2022-12-16T18:51:39;-2.50;96.10
10411;DHT22;5251;52.112;8.606;2022-12-16T18:54:23;-2.50;96.10
10411;DHT22;5251;52.112;8.606;2022-12-16T18:57:07;-2.60;96.10
10411;DHT22;5251;52.112;8.606;2022-12-16T18:59:51;-2.60;96.20
10411;DHT22;5251;52.112;8.606;2022-12-16T19:02:35;-2.60;96.20
10411;DHT22;5251;52.112;8.606;2022-12-16T19:05:19;-2.60;96.20
10411;DHT22;5251;52.112;8.606;2022-12-16T19:08:03;-2.60;96.20
10411;DHT22;5251;52.112;8.606;2022-12-16T19:10:47;-2.70;96.20
10411;DHT22;5251;52.112;8.606;2022-12-16T19:13:31;-2.70;96.30
10411;DHT22;5251;52.112;8.606;2022-12-16T19:16:15;-2.70;96.30
10411;DHT22;5251;52.112;8.606;2022-12-16T19:18:59;-2.70;96.20
10411;DHT22;5251;52.112;8.606;2022-12-16T19:21:43;-2.70;96.10
10411;DHT22;5251;52.112;8.606;2022-12-16T19:24:29;-2.80;96.00
10411;DHT22;5251;52.112;8.606;2022-12-16T19:27:13;-2.80;96.00
10411;DHT22;5251;52.112;8.606;2022-12-16T19:29:57;-2.80;96.00
10411;DHT22;5251;52.112;8.606;2022-12-16T19:32:41;-2.80;96.00
10411;DHT22;5251;52.112;8.606;2022-12-16T19:35:25;-2.80;96.00